Time;durP1;ratioP1;P1;durP2;ratioP2;P2;SDS_P1;SDS_P2;PMS_P1;PMS_P2;Temp;Humidity;BMP_temperature;BMP_pressure;BME280_temperature;BME280_humidity;BME280_pressure;Samples;Min_cycle;Max_cycle;Signal;HPM_P1;HPM_P2
2023/08/22 00:00:23;;;;;;;8.10;4.93;;;20.20;99.90;;;;;;5073817;28;20512;-74
2023/08/22 00:02:49;;;;;;;6.33;5.50;;;20.20;99.90;;;;;;5073087;28;20213;-74
2023/08/22 00:05:15;;;;;;;11.73;6.07;;;20.20;99.90;;;;;;5072036;28;20194;-74
2023/08/22 00:07:41;;;;;;;9.57;5.70;;;20.20;99.90;;;;;;5072455;28;20178;-74
2023/08/22 00:10:07;;;;;;;7.78;5.72;;;20.20;99.90;;;;;;5073551;28;20178;-74
2023/08/22 00:12:33;;;;;;;6.32;5.00;;;20.20;99.90;;;;;;5072900;28;20173;-74
2023/08/22 00:14:58;;;;;;;6.43;5.38;;;20.30;99.90;;;;;;5073356;28;20194;-74
2023/08/22 00:17:24;;;;;;;7.80;5.47;;;20.30;99.90;;;;;;5073531;28;20166;-73
2023/08/22 00:19:51;;;;;;;7.55;5.50;;;20.30;99.90;;;;;;5073413;28;20174;-74
2023/08/22 00:22:16;;;;;;;9.90;5.70;;;20.30;99.90;;;;;;5059519;28;20210;-74
2023/08/22 00:24:42;;;;;;;5.57;5.07;;;20.30;99.90;;;;;;5063405;28;20201;-74
2023/08/22 00:27:11;;;;;;;8.40;4.90;;;20.30;99.90;;;;;;5071930;28;20265;-74
2023/08/22 00:29:37;;;;;;;6.55;5.03;;;20.30;99.90;;;;;;5073168;28;20186;-73
2023/08/22 00:32:03;;;;;;;6.25;4.97;;;20.30;99.90;;;;;;5072811;28;20243;-74
2023/08/22 00:34:29;;;;;;;7.97;5.70;;;20.30;99.90;;;;;;5073179;28;20345;-73
2023/08/22 00:36:54;;;;;;;6.65;5.88;;;20.30;99.90;;;;;;5073250;28;20282;-74
2023/08/22 00:39:20;;;;;;;9.82;5.88;;;20.30;99.90;;;;;;5055525;28;20702;-73
2023/08/22 00:41:46;;;;;;;8.25;5.55;;;20.30;99.90;;;;;;5052770;28;20262;-73
2023/08/22 00:44:12;;;;;;;10.05;5.43;;;20.30;99.90;;;;;;5051513;28;20221;-73
2023/08/22 00:46:37;;;;;;;7.55;6.35;;;20.30;99.90;;;;;;5052966;28;20177;-73
2023/08/22 00:49:05;;;;;;;8.52;6.18;;;20.30;99.90;;;;;;5051365;28;20182;-73
2023/08/22 00:51:31;;;;;;;8.23;5.90;;;20.30;99.90;;;;;;5052715;28;20166;-74
2023/08/22 00:53:58;;;;;;;10.07;5.57;;;20.20;99.90;;;;;;5053342;28;20195;-74
2023/08/22 00:56:23;;;;;;;11.98;6.30;;;20.00;99.90;;;;;;5055011;28;20178;-74
2023/08/22 00:58:50;;;;;;;8.80;6.00;;;19.90;99.90;;;;;;5072577;28;20173;-73
2023/08/22 01:01:17;;;;;;;6.70;6.07;;;19.90;99.90;;;;;;5072418;28;20166;-74
2023/08/22 01:03:42;;;;;;;8.55;6.07;;;19.80;99.90;;;;;;5072522;28;20550;-73
2023/08/22 01:06:31;;;;;;;11.63;6.50;;;19.80;99.90;;;;;;5072793;28;20567;-73
2023/08/22 01:09:04;;;;;;;7.65;5.68;;;19.80;99.90;;;;;;5072157;28;20746;-73
2023/08/22 01:11:38;;;;;;;13.00;6.90;;;19.80;99.90;;;;;;5063436;28;20175;-74
2023/08/22 01:14:09;;;;;;;10.07;6.40;;;19.80;99.90;;;;;;5052114;28;20191;-74
2023/08/22 01:16:35;;;;;;;8.90;6.33;;;19.70;99.90;;;;;;5052542;28;20182;-74
2023/08/22 01:19:03;;;;;;;7.47;6.03;;;19.70;99.90;;;;;;5053783;28;20167;-74
2023/08/22 01:21:32;;;;;;;9.05;6.10;;;19.60;99.90;;;;;;5072248;28;20265;-74
2023/08/22 01:23:58;;;;;;;7.03;6.23;;;19.60;99.90;;;;;;5071507;28;20628;-73
2023/08/22 01:26:24;;;;;;;11.37;6.50;;;19.60;99.90;;;;;;5069817;28;20315;-74
2023/08/22 01:28:56;;;;;;;10.50;7.03;;;19.60;99.90;;;;;;5054023;28;20197;-74
2023/08/22 01:31:36;;;;;;;8.47;6.37;;;19.60;99.90;;;;;;5051717;28;20174;-73
2023/08/22 01:34:17;;;;;;;8.07;6.73;;;19.50;99.90;;;;;;5051801;28;20601;-74
2023/08/22 01:36:45;;;;;;;9.03;6.80;;;19.50;99.90;;;;;;5052224;28;20217;-73
2023/08/22 01:39:13;;;;;;;10.60;8.53;;;19.40;99.90;;;;;;5051767;28;20204;-74
2023/08/22 01:41:39;;;;;;;11.20;7.20;;;19.30;99.90;;;;;;5050676;28;20737;-73
2023/08/22 01:44:04;;;;;;;12.93;7.07;;;19.30;99.90;;;;;;5059087;28;20308;-74
2023/08/22 01:46:30;;;;;;;10.23;8.00;;;19.20;99.90;;;;;;5071517;28;20535;-74
2023/08/22 01:48:56;;;;;;;9.27;7.90;;;19.20;99.90;;;;;;5071391;28;20170;-74
2023/08/22 01:51:21;;;;;;;9.27;7.73;;;19.00;99.90;;;;;;5071460;28;20244;-74
2023/08/22 01:53:47;;;;;;;11.60;8.17;;;18.90;99.90;;;;;;5071848;28;20200;-74
2023/08/22 01:56:13;;;;;;;16.87;8.97;;;18.90;99.90;;;;;;5071535;28;20178;-73
2023/08/22 01:58:38;;;;;;;10.13;7.93;;;18.80;99.90;;;;;;5071571;28;20633;-74
2023/08/22 02:01:13;;;;;;;10.27;8.47;;;18.80;99.90;;;;;;5068793;28;20284;-74
2023/08/22 02:03:40;;;;;;;16.33;9.00;;;18.80;99.90;;;;;;5068857;28;20251;-74
2023/08/22 02:06:06;;;;;;;11.80;8.87;;;18.70;99.90;;;;;;5070308;28;20229;-74
2023/08/22 02:08:32;;;;;;;12.17;8.43;;;18.70;99.90;;;;;;5071592;28;20166;-73
2023/08/22 02:10:57;;;;;;;16.70;9.33;;;18.70;99.90;;;;;;5069655;28;20181;-73
2023/08/22 02:13:23;;;;;;;13.57;8.97;;;18.60;99.90;;;;;;5070571;28;20179;-74
2023/08/22 02:15:48;;;;;;;9.47;8.47;;;18.60;99.90;;;;;;5071108;28;20226;-74
2023/08/22 02:18:14;;;;;;;14.50;8.63;;;18.70;99.90;;;;;;5069452;28;20564;-74
2023/08/22 02:20:40;;;;;;;13.43;8.70;;;18.70;99.90;;;;;;5071459;28;20581;-73
2023/08/22 02:23:06;;;;;;;13.13;8.57;;;18.80;99.90;;;;;;5071046;28;20776;-74
2023/08/22 02:25:32;;;;;;;10.97;8.33;;;18.70;99.90;;;;;;5069821;28;20285;-73
2023/08/22 02:27:58;;;;;;;13.77;8.37;;;18.70;99.90;;;;;;5071666;28;20171;-73
2023/08/22 02:30:24;;;;;;;10.27;8.63;;;18.70;99.90;;;;;;5069965;28;20173;-74
2023/08/22 02:32:50;;;;;;;12.00;8.40;;;18.70;99.90;;;;;;5070650;28;20170;-73
2023/08/22 02:35:15;;;;;;;12.87;8.00;;;18.70;99.90;;;;;;5058320;28;20285;-74
2023/08/22 02:37:41;;;;;;;12.10;9.00;;;18.60;99.90;;;;;;5051293;28;20182;-74
2023/08/22 02:40:09;;;;;;;10.10;8.13;;;18.60;99.90;;;;;;5051174;28;20170;-74
2023/08/22 02:42:35;;;;;;;13.20;8.50;;;18.60;99.90;;;;;;5050811;28;20209;-74
2023/08/22 02:45:01;;;;;;;12.43;8.10;;;18.50;99.90;;;;;;5050662;28;20183;-73
2023/08/22 02:47:28;;;;;;;15.83;8.40;;;18.50;99.90;;;;;;5051482;28;20181;-73
2023/08/22 02:49:54;;;;;;;14.27;7.37;;;18.50;99.90;;;;;;5051020;28;20199;-74
2023/08/22 02:52:19;;;;;;;11.63;7.60;;;18.40;99.90;;;;;;5051815;28;20648;-73
2023/08/22 02:54:45;;;;;;;10.23;7.43;;;18.40;99.90;;;;;;5051064;28;20201;-73
2023/08/22 02:57:11;;;;;;;14.60;7.07;;;18.30;99.90;;;;;;5049532;28;20667;-73
2023/08/22 02:59:36;;;;;;;11.17;7.43;;;18.20;99.90;;;;;;5050969;28;20275;-74
2023/08/22 03:02:03;;;;;;;12.00;7.63;;;18.20;99.90;;;;;;5050589;28;20174;-73
2023/08/22 03:04:29;;;;;;;11.23;7.50;;;18.20;99.90;;;;;;5051171;28;20197;-74
2023/08/22 03:06:54;;;;;;;11.27;7.47;;;18.10;99.90;;;;;;5048937;28;20649;-72
2023/08/22 03:09:21;;;;;;;13.87;7.07;;;18.10;99.90;;;;;;5069461;28;20184;-74
2023/08/22 03:11:47;;;;;;;18.33;7.20;;;18.10;99.90;;;;;;5070840;28;20181;-73
2023/08/22 03:14:12;;;;;;;8.20;7.17;;;18.10;99.90;;;;;;5070780;28;20202;-74
2023/08/22 03:16:38;;;;;;;11.73;7.27;;;18.10;99.90;;;;;;5070171;28;20184;-73
2023/08/22 03:19:04;;;;;;;9.17;6.83;;;18.10;99.90;;;;;;5070586;28;20181;-73
2023/08/22 03:21:29;;;;;;;14.43;7.13;;;18.10;99.90;;;;;;5070789;28;20632;-73
2023/08/22 03:23:55;;;;;;;10.70;7.53;;;18.10;99.90;;;;;;5068717;28;20209;-73
2023/08/22 03:26:21;;;;;;;12.47;7.13;;;18.00;99.90;;;;;;5074500;28;20263;-73
2023/08/22 03:28:46;;;;;;;12.63;7.77;;;18.00;99.90;;;;;;5074655;28;20178;-73
2023/08/22 03:31:12;;;;;;;12.30;8.00;;;17.90;99.90;;;;;;5074218;28;20316;-73
2023/08/22 03:33:37;;;;;;;11.47;7.80;;;17.80;99.90;;;;;;5074116;28;20206;-73
2023/08/22 03:36:03;;;;;;;11.97;7.33;;;17.80;99.90;;;;;;5074434;28;20178;-73
2023/08/22 03:38:29;;;;;;;19.47;7.93;;;17.80;99.90;;;;;;5072993;28;20182;-73
2023/08/22 03:40:56;;;;;;;13.33;7.20;;;17.80;99.90;;;;;;5070899;28;20644;-74
2023/08/22 03:43:22;;;;;;;10.03;7.43;;;17.80;99.90;;;;;;5072617;28;20210;-73
2023/08/22 03:45:48;;;;;;;12.03;7.37;;;17.80;99.90;;;;;;5074096;28;20177;-73
2023/08/22 03:48:14;;;;;;;13.30;7.90;;;17.80;99.90;;;;;;5074327;28;20249;-73
2023/08/22 03:50:41;;;;;;;11.70;7.93;;;17.90;99.90;;;;;;5068271;28;20203;-73
2023/08/22 03:53:11;;;;;;;9.03;7.70;;;17.90;99.90;;;;;;5053757;28;20179;-74
2023/08/22 03:55:36;;;;;;;14.53;7.77;;;17.90;99.90;;;;;;5054161;28;20199;-74
2023/08/22 03:58:02;;;;;;;9.77;7.43;;;17.90;99.90;;;;;;5055137;28;20698;-74
2023/08/22 04:00:28;;;;;;;14.13;8.43;;;17.90;99.90;;;;;;5054217;28;20183;-74
2023/08/22 04:02:58;;;;;;;8.23;6.77;;;17.80;99.90;;;;;;5053626;28;20205;-73
2023/08/22 04:05:24;;;;;;;16.73;8.33;;;17.80;99.90;;;;;;5054099;28;20221;-73
2023/08/22 04:07:51;;;;;;;13.83;8.47;;;17.90;99.90;;;;;;5054188;28;20574;-74
2023/08/22 04:10:17;;;;;;;12.60;7.23;;;17.90;99.90;;;;;;5054049;28;20599;-74
2023/08/22 04:12:43;;;;;;;17.47;7.90;;;17.90;99.90;;;;;;5055033;28;20186;-73
2023/08/22 04:15:10;;;;;;;14.07;8.10;;;17.90;99.90;;;;;;5071896;28;20197;-74
2023/08/22 04:17:36;;;;;;;15.27;8.77;;;17.90;99.90;;;;;;5074137;28;20202;-74
2023/08/22 04:20:03;;;;;;;13.30;8.63;;;17.90;99.90;;;;;;5073617;28;20194;-74
2023/08/22 04:22:30;;;;;;;8.53;7.63;;;17.80;99.90;;;;;;5072090;28;20212;-74
2023/08/22 04:24:56;;;;;;;17.90;7.90;;;17.80;99.90;;;;;;5073328;28;20267;-74
2023/08/22 04:27:22;;;;;;;10.90;8.43;;;17.80;99.90;;;;;;5073719;28;20170;-73
2023/08/22 04:29:48;;;;;;;9.33;8.10;;;17.70;99.90;;;;;;5073463;28;20170;-73
2023/08/22 04:32:14;;;;;;;11.30;7.70;;;17.60;99.90;;;;;;5071265;28;20541;-74
2023/08/22 04:34:39;;;;;;;11.93;8.57;;;17.60;99.90;;;;;;5073184;28;20201;-74
2023/08/22 04:37:05;;;;;;;10.90;8.73;;;17.70;99.90;;;;;;5071419;28;20687;-74
2023/08/22 04:39:30;;;;;;;15.50;9.03;;;17.70;99.90;;;;;;5073106;28;20225;-75
2023/08/22 04:41:56;;;;;;;15.13;9.03;;;17.70;99.90;;;;;;5072534;28;20247;-74
2023/08/22 04:44:22;;;;;;;12.17;8.67;;;17.70;99.90;;;;;;5073146;28;20579;-74
2023/08/22 04:46:47;;;;;;;12.17;9.10;;;17.70;99.90;;;;;;5071422;28;20640;-74
2023/08/22 04:49:13;;;;;;;16.13;9.57;;;17.70;99.90;;;;;;5071453;28;20190;-74
2023/08/22 04:51:38;;;;;;;11.47;8.97;;;17.70;99.90;;;;;;5072774;28;20213;-74
2023/08/22 04:54:04;;;;;;;14.27;8.80;;;17.70;99.90;;;;;;5071434;28;20640;-74
2023/08/22 04:56:30;;;;;;;11.70;8.80;;;17.80;99.90;;;;;;5073608;28;20178;-74
2023/08/22 04:58:55;;;;;;;16.30;8.77;;;17.80;99.90;;;;;;5072599;28;20185;-73
2023/08/22 05:01:21;;;;;;;12.00;8.83;;;17.80;99.90;;;;;;5072675;28;20254;-74
2023/08/22 05:03:47;;;;;;;10.77;8.37;;;17.80;99.90;;;;;;5070735;28;20206;-74
2023/08/22 05:06:12;;;;;;;16.17;8.50;;;17.80;99.90;;;;;;5072689;28;20170;-73
2023/08/22 05:08:38;;;;;;;12.00;8.33;;;17.80;99.90;;;;;;5072184;28;20182;-74
2023/08/22 05:11:04;;;;;;;12.27;7.13;;;17.80;99.90;;;;;;5072832;28;20292;-74
2023/08/22 05:13:29;;;;;;;12.13;8.27;;;17.80;99.90;;;;;;5058391;28;20672;-74
2023/08/22 05:15:55;;;;;;;11.50;8.70;;;17.80;99.90;;;;;;5052426;28;20189;-74
2023/08/22 05:18:20;;;;;;;12.07;8.63;;;17.80;99.90;;;;;;5052918;28;20177;-74
2023/08/22 05:20:49;;;;;;;9.30;7.90;;;17.80;99.90;;;;;;5067987;28;20165;-74
2023/08/22 05:23:15;;;;;;;14.80;9.10;;;17.90;99.90;;;;;;5051706;28;20214;-75
2023/08/22 05:25:41;;;;;;;13.73;8.23;;;18.00;99.90;;;;;;5052354;28;20275;-73
2023/08/22 05:28:08;;;;;;;15.30;7.87;;;18.10;99.90;;;;;;5052228;28;20174;-74
2023/08/22 05:30:36;;;;;;;17.30;8.30;;;18.20;99.90;;;;;;5052256;28;20174;-74
2023/08/22 05:33:02;;;;;;;8.57;7.67;;;18.30;99.90;;;;;;5051554;28;20257;-74
2023/08/22 05:35:28;;;;;;;12.40;7.77;;;18.40;99.90;;;;;;5052008;28;20195;-74
2023/08/22 05:37:54;;;;;;;10.13;7.93;;;18.50;99.90;;;;;;5053253;28;20189;-74
2023/08/22 05:40:19;;;;;;;9.83;7.33;;;18.50;99.90;;;;;;5051982;28;20581;-74
2023/08/22 05:42:45;;;;;;;13.20;8.30;;;18.60;99.90;;;;;;5051566;28;20198;-74
2023/08/22 05:45:10;;;;;;;9.37;8.20;;;18.70;99.90;;;;;;5051445;28;20225;-74
2023/08/22 05:47:36;;;;;;;13.43;7.97;;;18.70;99.90;;;;;;5052227;28;20217;-74
2023/08/22 05:50:03;;;;;;;12.00;9.57;;;18.80;99.90;;;;;;5052076;28;20178;-74
2023/08/22 05:52:30;;;;;;;10.63;8.80;;;18.90;99.90;;;;;;5064278;28;20170;-73
2023/08/22 05:54:56;;;;;;;9.00;8.00;;;19.10;99.90;;;;;;5069639;28;20316;-73
2023/08/22 05:57:22;;;;;;;9.33;7.37;;;19.20;99.90;;;;;;5071569;28;20181;-74
2023/08/22 05:59:49;;;;;;;9.00;8.10;;;19.40;99.90;;;;;;5071860;28;20207;-74
2023/08/22 06:02:15;;;;;;;16.80;7.67;;;19.50;99.90;;;;;;5071176;28;20262;-74
2023/08/22 06:04:40;;;;;;;10.17;7.57;;;19.50;99.90;;;;;;5071561;28;20202;-74
2023/08/22 06:07:06;;;;;;;11.05;7.63;;;19.60;99.90;;;;;;5062808;28;20249;-72
2023/08/22 06:09:31;;;;;;;9.70;7.17;;;19.90;99.90;;;;;;5050265;28;20294;-74
2023/08/22 06:11:57;;;;;;;13.17;7.90;;;20.10;99.90;;;;;;5051149;28;20181;-72
2023/08/22 06:14:23;;;;;;;10.20;7.35;;;20.20;99.90;;;;;;5051389;28;20201;-73
2023/08/22 06:16:48;;;;;;;13.43;7.90;;;20.40;99.90;;;;;;5050821;28;20193;-73
2023/08/22 06:19:14;;;;;;;7.63;6.72;;;20.60;99.90;;;;;;5070547;28;20174;-73
2023/08/22 06:21:39;;;;;;;11.43;6.97;;;20.70;99.90;;;;;;5070423;28;20174;-73
2023/08/22 06:24:05;;;;;;;8.02;7.30;;;20.80;99.90;;;;;;5070802;28;20694;-72
2023/08/22 06:26:31;;;;;;;10.95;6.90;;;21.00;99.90;;;;;;5071353;28;20243;-72
2023/08/22 06:28:57;;;;;;;8.38;6.57;;;21.30;99.90;;;;;;5071036;28;20166;-73
2023/08/22 06:31:23;;;;;;;8.38;7.05;;;21.80;99.90;;;;;;5071203;28;20303;-73
2023/08/22 06:33:49;;;;;;;8.45;6.03;;;22.40;99.90;;;;;;5071359;28;20280;-73
2023/08/22 06:36:15;;;;;;;18.48;7.35;;;22.70;99.90;;;;;;5071327;28;20185;-74
2023/08/22 06:38:40;;;;;;;10.43;7.30;;;23.00;99.90;;;;;;5068990;28;20666;-73
2023/08/22 06:41:07;;;;;;;10.85;7.38;;;22.90;99.90;;;;;;5071024;28;20209;-73
2023/08/22 06:43:33;;;;;;;9.90;7.25;;;22.70;99.90;;;;;;5070833;28;20231;-74
2023/08/22 06:45:59;;;;;;;26.55;9.40;;;22.60;99.90;;;;;;5070927;28;20161;-73
2023/08/22 06:48:26;;;;;;;13.23;7.72;;;22.50;99.90;;;;;;5068182;28;20314;-73
2023/08/22 06:50:52;;;;;;;10.63;7.93;;;22.40;99.90;;;;;;5051056;28;20249;-73
2023/08/22 06:53:18;;;;;;;12.15;7.78;;;22.40;99.90;;;;;;5050339;28;20291;-74
2023/08/22 06:55:47;;;;;;;9.95;8.27;;;22.20;99.90;;;;;;5067084;28;20307;-74
2023/08/22 06:58:13;;;;;;;13.88;8.90;;;22.20;99.90;;;;;;5051537;28;20186;-74
2023/08/22 07:00:39;;;;;;;11.10;9.20;;;22.20;99.90;;;;;;5054809;28;20289;-74
2023/08/22 07:03:05;;;;;;;10.15;7.82;;;22.30;99.90;;;;;;5053990;28;20199;-74
2023/08/22 07:05:30;;;;;;;8.35;7.47;;;22.50;99.90;;;;;;5054943;28;20190;-73
2023/08/22 07:07:56;;;;;;;13.07;8.25;;;22.70;99.90;;;;;;5069265;28;20177;-73
2023/08/22 07:10:22;;;;;;;10.75;7.63;;;22.90;99.90;;;;;;5071155;28;20228;-73
2023/08/22 07:12:47;;;;;;;9.73;7.93;;;23.10;99.90;;;;;;5054439;28;20211;-73
2023/08/22 07:15:13;;;;;;;8.38;7.50;;;23.30;99.90;;;;;;5053517;28;20226;-73
2023/08/22 07:17:39;;;;;;;10.77;7.45;;;23.40;99.90;;;;;;5053692;28;20167;-73
2023/08/22 07:20:05;;;;;;;10.38;8.05;;;23.60;99.90;;;;;;5053611;28;20553;-73
2023/08/22 07:22:33;;;;;;;11.52;7.40;;;23.70;99.90;;;;;;5053893;28;20250;-73
2023/08/22 07:24:58;;;;;;;8.48;7.55;;;23.90;99.90;;;;;;5060969;28;20202;-73
2023/08/22 07:27:24;;;;;;;9.48;7.80;;;24.20;99.90;;;;;;5072248;28;20264;-74
2023/08/22 07:29:50;;;;;;;10.38;8.45;;;24.40;99.90;;;;;;5074167;28;20257;-73
2023/08/22 07:32:18;;;;;;;11.73;8.15;;;24.70;99.90;;;;;;5073789;28;20243;-73
2023/08/22 07:34:45;;;;;;;8.35;7.25;;;25.00;99.90;;;;;;5074275;28;20189;-74
2023/08/22 07:37:10;;;;;;;9.18;7.40;;;25.30;99.90;;;;;;5073202;28;20324;-73
2023/08/22 07:39:36;;;;;;;9.00;8.10;;;25.50;99.90;;;;;;5073837;28;20253;-72
2023/08/22 07:42:01;;;;;;;9.43;7.50;;;25.60;99.90;;;;;;5073156;28;20697;-73
2023/08/22 07:44:27;;;;;;;10.23;7.18;;;25.50;99.90;;;;;;5072283;28;20229;-73
2023/08/22 07:46:53;;;;;;;8.18;7.30;;;25.50;99.90;;;;;;5073911;28;20652;-73
2023/08/22 07:49:18;;;;;;;11.15;7.53;;;25.40;99.90;;;;;;5073678;28;20170;-73
2023/08/22 07:51:44;;;;;;;9.73;8.70;;;25.60;99.90;;;;;;5073716;28;20643;-73
2023/08/22 07:54:09;;;;;;;10.98;7.55;;;26.00;99.90;;;;;;5073662;28;20276;-72
2023/08/22 07:56:35;;;;;;;11.75;7.00;;;26.20;99.90;;;;;;5074133;28;20175;-74
2023/08/22 07:59:01;;;;;;;9.43;8.52;;;26.40;99.90;;;;;;5072140;28;20178;-74
2023/08/22 08:01:27;;;;;;;15.13;10.05;;;26.50;99.90;;;;;;5071781;28;20182;-73
2023/08/22 08:03:52;;;;;;;12.30;8.85;;;26.50;99.90;;;;;;5073440;28;20687;-73
2023/08/22 08:06:18;;;;;;;24.48;8.80;;;26.30;99.90;;;;;;5073642;28;20178;-73
2023/08/22 08:08:44;;;;;;;15.98;7.82;;;26.40;99.90;;;;;;5073272;28;20170;-74
2023/08/22 08:11:09;;;;;;;10.23;9.00;;;26.30;99.90;;;;;;5072583;28;20682;-73
2023/08/22 08:13:35;;;;;;;13.35;8.45;;;26.20;99.90;;;;;;5073204;28;20206;-72
2023/08/22 08:16:01;;;;;;;11.15;8.23;;;26.10;99.90;;;;;;5072333;28;20636;-72
2023/08/22 08:18:26;;;;;;;14.75;8.82;;;26.10;99.90;;;;;;5071727;28;20535;-73
2023/08/22 08:20:52;;;;;;;11.88;9.82;;;26.50;99.90;;;;;;5072881;28;20166;-73
2023/08/22 08:23:18;;;;;;;12.88;9.82;;;27.10;99.90;;;;;;5072849;28;20237;-73
2023/08/22 08:25:43;;;;;;;10.60;8.45;;;27.80;99.90;;;;;;5072984;28;20178;-73
2023/08/22 08:28:09;;;;;;;10.40;7.60;;;28.70;99.90;;;;;;5073028;28;20808;-73
2023/08/22 08:30:35;;;;;;;13.27;9.13;;;29.40;99.90;;;;;;5073145;28;20249;-72
2023/08/22 08:33:04;;;;;;;9.95;8.00;;;30.00;99.90;;;;;;5071471;28;20174;-74
2023/08/22 08:35:29;;;;;;;9.70;7.30;;;30.60;99.90;;;;;;5071588;28;20281;-73
2023/08/22 08:37:57;;;;;;;9.18;7.30;;;31.40;99.90;;;;;;5072708;28;20655;-74
2023/08/22 08:40:22;;;;;;;10.50;8.25;;;32.10;99.90;;;;;;5073076;28;20178;-73
2023/08/22 08:42:49;;;;;;;10.77;8.93;;;32.50;99.90;;;;;;5072568;28;20220;-74
2023/08/22 08:45:15;;;;;;;13.35;12.05;;;32.90;99.90;;;;;;5072600;28;20194;-74
2023/08/22 08:47:42;;;;;;;9.77;7.72;;;33.40;99.90;;;;;;5073123;28;20198;-74
2023/08/22 08:50:09;;;;;;;10.15;9.20;;;34.00;99.90;;;;;;5072800;28;20170;-73
2023/08/22 08:52:35;;;;;;;12.18;7.85;;;34.50;99.90;;;;;;5070925;28;20201;-75
2023/08/22 08:55:06;;;;;;;11.85;9.32;;;34.80;99.90;;;;;;5067229;28;20194;-74
2023/08/22 08:57:32;;;;;;;10.57;8.05;;;34.70;99.90;;;;;;5051623;28;20191;-73
2023/08/22 09:00:00;;;;;;;8.73;6.57;;;34.40;99.90;;;;;;5052633;28;20221;-74
2023/08/22 09:02:27;;;;;;;8.82;6.07;;;33.80;99.90;;;;;;5052616;28;20201;-74
2023/08/22 09:04:53;;;;;;;9.75;8.75;;;33.50;99.90;;;;;;5069656;28;20200;-74
2023/08/22 09:07:19;;;;;;;14.02;10.55;;;33.70;99.90;;;;;;5072421;28;20170;-74
2023/08/22 09:09:44;;;;;;;13.00;11.68;;;33.80;99.90;;;;;;5071137;28;20172;-75
2023/08/22 09:12:11;;;;;;;9.57;6.75;;;34.10;99.90;;;;;;5072144;28;20174;-73
2023/08/22 09:14:47;;;;;;;9.20;7.57;;;34.30;99.90;;;;;;5062659;28;20199;-74
2023/08/22 09:17:17;;;;;;;8.55;7.75;;;34.40;99.90;;;;;;5052179;28;20632;-75
2023/08/22 09:19:44;;;;;;;7.05;5.00;;;34.40;99.90;;;;;;5052619;28;20190;-74
2023/08/22 09:22:14;;;;;;;11.35;7.25;;;35.00;99.90;;;;;;5050689;28;20178;-72
2023/08/22 09:24:50;;;;;;;10.88;6.22;;;35.20;99.90;;;;;;5053250;28;20187;-73
2023/08/22 09:27:16;;;;;;;13.80;12.32;;;35.00;99.90;;;;;;5052026;28;20165;-73
2023/08/22 09:29:42;;;;;;;14.98;13.57;;;34.60;99.90;;;;;;5052231;28;20545;-73
2023/08/22 09:32:08;;;;;;;16.85;15.25;;;34.10;99.90;;;;;;5051626;28;20574;-74
2023/08/22 09:34:34;;;;;;;13.77;12.32;;;33.70;99.90;;;;;;5052129;28;20198;-73
2023/08/22 09:37:00;;;;;;;15.77;14.40;;;33.10;99.90;;;;;;5052007;28;20167;-73
2023/08/22 09:39:26;;;;;;;11.48;10.43;;;32.90;99.90;;;;;;5051888;28;20925;-75
2023/08/22 09:41:56;;;;;;;12.50;11.35;;;32.60;99.90;;;;;;5052793;28;20186;-74
2023/08/22 09:44:25;;;;;;;11.20;10.13;;;32.40;99.90;;;;;;5051842;28;20632;-73
2023/08/22 09:46:52;;;;;;;14.40;13.30;;;32.30;99.90;;;;;;5051953;28;20167;-73
2023/08/22 09:49:18;;;;;;;13.15;12.13;;;32.00;99.90;;;;;;5051760;28;20236;-73
2023/08/22 09:51:45;;;;;;;19.73;18.30;;;31.80;99.90;;;;;;5051445;28;20181;-73
2023/08/22 09:54:12;;;;;;;19.70;18.50;;;31.80;99.90;;;;;;5050915;28;20213;-73
2023/08/22 09:56:39;;;;;;;21.70;19.95;;;31.90;99.90;;;;;;5051876;28;20179;-74
2023/08/22 09:59:05;;;;;;;12.68;11.68;;;31.70;99.90;;;;;;5069326;28;20178;-73
2023/08/22 10:01:36;;;;;;;13.85;12.63;;;31.50;99.90;;;;;;5071310;28;20178;-74
2023/08/22 10:04:03;;;;;;;11.82;10.93;;;31.50;99.90;;;;;;5071300;28;20206;-73
2023/08/22 10:06:31;;;;;;;12.27;11.07;;;31.50;99.90;;;;;;5070977;28;20526;-73
2023/08/22 10:08:57;;;;;;;11.80;10.40;;;31.40;99.90;;;;;;5069351;28;20635;-73
2023/08/22 10:11:27;;;;;;;6.85;5.65;;;31.10;99.90;;;;;;5066653;28;20254;-73
2023/08/22 10:13:53;;;;;;;7.68;5.55;;;30.60;99.90;;;;;;5051851;28;20234;-73
2023/08/22 10:16:19;;;;;;;5.95;5.43;;;30.20;99.90;;;;;;5051278;28;20182;-73
2023/08/22 10:18:45;;;;;;;5.28;4.70;;;30.30;99.90;;;;;;5051437;28;20175;-73
2023/08/22 10:21:11;;;;;;;10.20;4.80;;;30.50;99.90;;;;;;5051272;28;20247;-73
2023/08/22 10:23:52;;;;;;;5.53;3.70;;;30.60;99.90;;;;;;5051119;28;20213;-74
2023/08/22 10:26:22;;;;;;;6.07;4.45;;;30.60;99.90;;;;;;5068112;28;20180;-74
2023/08/22 10:29:17;;;;;;;5.47;4.70;;;30.60;99.90;;;;;;5059681;28;20186;-72
2023/08/22 10:32:00;;;;;;;9.05;5.68;;;30.50;99.90;;;;;;5051125;28;20175;-73
2023/08/22 10:34:38;;;;;;;7.68;5.15;;;30.50;99.90;;;;;;5050857;28;20648;-73
2023/08/22 10:37:13;;;;;;;7.30;4.47;;;30.40;99.90;;;;;;5051130;28;20185;-74
2023/08/22 10:39:40;;;;;;;9.70;4.45;;;30.60;99.90;;;;;;5049959;28;20214;-73
2023/08/22 10:42:06;;;;;;;5.07;3.20;;;31.00;99.90;;;;;;5050449;28;20194;-73
2023/08/22 10:44:36;;;;;;;5.25;3.42;;;31.40;99.90;;;;;;5050924;28;20252;-73
2023/08/22 10:47:07;;;;;;;5.38;3.70;;;31.50;99.90;;;;;;5051313;28;20216;-73
2023/08/22 10:49:38;;;;;;;6.32;4.40;;;31.70;99.90;;;;;;5054111;28;20215;-71
2023/08/22 10:52:07;;;;;;;5.30;3.63;;;31.80;99.90;;;;;;5070539;28;20267;-73
2023/08/22 10:55:00;;;;;;;11.60;4.90;;;31.60;99.90;;;;;;5071633;28;20186;-73
2023/08/22 10:57:31;;;;;;;7.05;3.75;;;31.40;99.90;;;;;;5058500;28;20472;-73
2023/08/22 10:59:59;;;;;;;5.78;4.10;;;31.00;99.90;;;;;;5070820;28;20241;-73
2023/08/22 11:02:33;;;;;;;6.30;5.00;;;30.50;99.90;;;;;;5069030;28;20213;-73
2023/08/22 11:05:01;;;;;;;6.97;5.30;;;30.30;99.90;;;;;;5071104;28;20189;-73
2023/08/22 11:07:27;;;;;;;12.65;10.13;;;30.30;99.90;;;;;;5070871;28;20166;-73
2023/08/22 11:09:57;;;;;;;15.25;14.30;;;30.20;99.90;;;;;;5071013;28;20262;-71
2023/08/22 11:12:24;;;;;;;13.55;12.55;;;30.00;99.90;;;;;;5070689;28;20188;-71
2023/08/22 11:14:52;;;;;;;11.30;10.40;;;29.60;99.90;;;;;;5070820;28;20194;-73
2023/08/22 11:17:19;;;;;;;6.38;4.88;;;29.30;99.90;;;;;;5069624;28;20186;-73
2023/08/22 11:19:46;;;;;;;5.65;5.20;;;29.20;99.90;;;;;;5070036;28;20693;-72
2023/08/22 11:22:12;;;;;;;6.10;4.95;;;29.40;99.90;;;;;;5068481;28;20562;-73
2023/08/22 11:24:45;;;;;;;6.57;5.97;;;29.50;99.90;;;;;;5070617;28;20768;-72
2023/08/22 11:27:15;;;;;;;6.30;4.32;;;29.60;99.90;;;;;;5070806;28;20239;-72
2023/08/22 11:29:44;;;;;;;4.30;3.90;;;29.50;99.90;;;;;;5071030;28;20174;-72
2023/08/22 11:32:30;;;;;;;7.95;7.13;;;29.50;99.90;;;;;;5070490;28;20170;-73
2023/08/22 11:34:59;;;;;;;11.95;11.13;;;29.70;99.90;;;;;;5061855;28;20229;-71
2023/08/22 11:37:26;;;;;;;9.90;9.20;;;29.80;99.90;;;;;;5050526;28;20255;-73
2023/08/22 11:39:53;;;;;;;8.75;8.18;;;29.70;99.90;;;;;;5050721;28;20167;-72
2023/08/22 11:42:24;;;;;;;13.73;12.75;;;29.80;99.90;;;;;;5048969;28;20191;-72
2023/08/22 11:44:58;;;;;;;11.65;10.65;;;29.80;99.90;;;;;;5050810;28;20293;-73
2023/08/22 11:47:23;;;;;;;7.28;6.78;;;29.70;99.90;;;;;;5053921;28;20209;-73
2023/08/22 11:49:50;;;;;;;6.80;6.15;;;29.60;99.90;;;;;;5054152;28;20655;-73
2023/08/22 11:52:16;;;;;;;8.07;7.38;;;29.60;99.90;;;;;;5071019;28;20205;-73
2023/08/22 11:54:43;;;;;;;5.05;2.70;;;30.00;99.90;;;;;;5074092;28;20327;-72
2023/08/22 11:57:09;;;;;;;4.47;4.10;;;30.50;99.90;;;;;;5072513;28;20652;-72
2023/08/22 11:59:35;;;;;;;4.20;3.53;;;30.80;99.90;;;;;;5074090;28;20232;-72
2023/08/22 12:02:01;;;;;;;5.60;3.15;;;31.10;99.90;;;;;;5071357;28;20491;-72
2023/08/22 12:04:43;;;;;;;2.70;2.50;;;31.10;99.90;;;;;;5073248;28;20679;-73
2023/08/22 12:07:09;;;;;;;8.20;3.80;;;31.10;99.90;;;;;;5070312;28;20535;-73
2023/08/22 12:09:34;;;;;;;4.32;3.70;;;31.00;99.90;;;;;;5073716;28;20177;-73
2023/08/22 12:12:14;;;;;;;5.63;3.97;;;31.00;99.90;;;;;;5070440;28;20179;-72
2023/08/22 12:14:40;;;;;;;5.05;4.50;;;30.90;99.90;;;;;;5057613;28;20664;-72
2023/08/22 12:17:06;;;;;;;5.68;4.32;;;30.60;99.90;;;;;;5071294;28;20177;-73
2023/08/22 12:19:32;;;;;;;4.18;3.05;;;30.60;99.90;;;;;;5067278;28;20170;-74
2023/08/22 12:21:59;;;;;;;5.93;2.78;;;30.80;99.90;;;;;;5072998;28;20542;-73
2023/08/22 12:24:25;;;;;;;3.80;3.40;;;30.90;99.90;;;;;;5072974;28;20205;-73
2023/08/22 12:26:52;;;;;;;4.63;4.22;;;30.90;99.90;;;;;;5073471;28;20170;-74
2023/08/22 12:29:17;;;;;;;8.80;7.65;;;31.10;99.90;;;;;;5073201;28;20181;-73
2023/08/22 12:31:43;;;;;;;6.90;5.60;;;31.30;99.90;;;;;;5072969;28;20162;-73
2023/08/22 12:34:08;;;;;;;4.32;3.38;;;31.30;99.90;;;;;;5073134;28;20278;-73
2023/08/22 12:36:34;;;;;;;6.05;4.97;;;31.40;99.90;;;;;;5074066;28;20670;-73
2023/08/22 12:39:00;;;;;;;3.65;3.35;;;31.70;99.90;;;;;;5073280;28;20252;-74